sensor_id;sensor_type;location;lat;lon;timestamp;pressure;altitude;pressure_sealevel;temperature;humidity
25610;BME280;13479;49.044;8.716;2022-07-10T04:18:07;99816.13;;;16.17;71.30
25610;BME280;13479;49.044;8.716;2022-07-10T04:20:32;99810.41;;;16.30;71.00
25610;BME280;13479;49.044;8.716;2022-07-10T04:22:58;99810.91;;;16.44;70.32
25610;BME280;13479;49.044;8.716;2022-07-10T04:25:23;99809.97;;;16.53;69.65
25610;BME280;13479;49.044;8.716;2022-07-10T04:27:48;99794.88;;;16.52;69.37
25610;BME280;13479;49.044;8.716;2022-07-10T04:30:13;99775.31;;;16.51;69.83
25610;BME280;13479;49.044;8.716;2022-07-10T04:32:39;99788.94;;;16.58;69.11
25610;BME280;13479;49.044;8.716;2022-07-10T04:35:04;99785.25;;;16.59;68.75
25610;BME280;13479;49.044;8.716;2022-07-10T04:37:30;99784.47;;;16.67;68.71
25610;BME280;13479;49.044;8.716;2022-07-10T04:39:55;99784.88;;;16.72;68.44
25610;BME280;13479;49.044;8.716;2022-07-10T04:42:20;99775.38;;;16.78;68.45
25610;BME280;13479;49.044;8.716;2022-07-10T04:44:46;99777.41;;;16.84;68.01
25610;BME280;13479;49.044;8.716;2022-07-10T04:47:11;99776.13;;;16.88;68.08
25610;BME280;13479;49.044;8.716;2022-07-10T04:49:37;99785.34;;;17.04;67.64
25610;BME280;13479;49.044;8.716;2022-07-10T04:52:03;99787.31;;;17.20;66.67
25610;BME280;13479;49.044;8.716;2022-07-10T04:54:28;99772.91;;;17.21;66.45
25610;BME280;13479;49.044;8.716;2022-07-10T04:56:53;99771.09;;;17.29;66.29
25610;BME280;13479;49.044;8.716;2022-07-10T04:59:19;99765.78;;;17.38;66.28
25610;BME280;13479;49.044;8.716;2022-07-10T05:01:44;99770.03;;;17.49;65.98
25610;BME280;13479;49.044;8.716;2022-07-10T05:04:10;99773.69;;;17.74;64.55
25610;BME280;13479;49.044;8.716;2022-07-10T05:06:36;99768.00;;;17.77;64.23
25610;BME280;13479;49.044;8.716;2022-07-10T05:09:02;99758.81;;;17.88;64.14
25610;BME280;13479;49.044;8.716;2022-07-10T05:11:27;99755.53;;;18.02;63.72
25610;BME280;13479;49.044;8.716;2022-07-10T05:13:53;99753.59;;;18.21;62.93
25610;BME280;13479;49.044;8.716;2022-07-10T05:16:18;99750.75;;;18.31;63.25
25610;BME280;13479;49.044;8.716;2022-07-10T05:18:44;99755.84;;;18.59;62.02
25610;BME280;13479;49.044;8.716;2022-07-10T05:21:09;99751.13;;;18.69;61.44
25610;BME280;13479;49.044;8.716;2022-07-10T05:23:36;99744.94;;;18.68;60.66
25610;BME280;13479;49.044;8.716;2022-07-10T05:26:02;99734.31;;;18.92;60.55
25610;BME280;13479;49.044;8.716;2022-07-10T05:28:27;99739.00;;;19.23;59.81
25610;BME280;13479;49.044;8.716;2022-07-10T05:30:53;99752.59;;;20.02;57.40
25610;BME280;13479;49.044;8.716;2022-07-10T05:33:18;99751.53;;;21.43;54.32
25610;BME280;13479;49.044;8.716;2022-07-10T05:35:43;99755.19;;;22.97;50.75
25610;BME280;13479;49.044;8.716;2022-07-10T05:38:09;99785.78;;;24.18;46.43
25610;BME280;13479;49.044;8.716;2022-07-10T05:40:34;99814.19;;;25.24;43.44
25610;BME280;13479;49.044;8.716;2022-07-10T05:42:59;99822.69;;;26.47;41.02
25610;BME280;13479;49.044;8.716;2022-07-10T05:45:25;99838.19;;;27.68;39.03
25610;BME280;13479;49.044;8.716;2022-07-10T05:47:50;99854.38;;;28.56;36.47
25610;BME280;13479;49.044;8.716;2022-07-10T05:50:15;99870.38;;;29.44;34.71
25610;BME280;13479;49.044;8.716;2022-07-10T05:52:41;99882.69;;;30.30;32.62
25610;BME280;13479;49.044;8.716;2022-07-10T05:55:07;99896.88;;;30.96;31.22
25610;BME280;13479;49.044;8.716;2022-07-10T05:57:33;99903.34;;;31.19;30.31
25610;BME280;13479;49.044;8.716;2022-07-10T05:59:58;99900.59;;;31.19;29.94
25610;BME280;13479;49.044;8.716;2022-07-10T06:02:23;99901.88;;;31.00;30.45
25610;BME280;13479;49.044;8.716;2022-07-10T06:04:49;99903.94;;;31.38;29.81
25610;BME280;13479;49.044;8.716;2022-07-10T06:07:14;99909.56;;;31.66;28.95
25610;BME280;13479;49.044;8.716;2022-07-10T06:09:39;99919.59;;;30.80;29.83
25610;BME280;13479;49.044;8.716;2022-07-10T06:12:05;99920.44;;;30.40;29.85
25610;BME280;13479;49.044;8.716;2022-07-10T06:14:30;99910.91;;;30.30;30.34
25610;BME280;13479;49.044;8.716;2022-07-10T06:16:56;99910.34;;;30.28;30.58
25610;BME280;13479;49.044;8.716;2022-07-10T06:19:21;99914.63;;;29.22;31.25
25610;BME280;13479;49.044;8.716;2022-07-10T06:21:47;99891.84;;;28.37;32.45
25610;BME280;13479;49.044;8.716;2022-07-10T06:24:12;99870.66;;;27.95;34.05
25610;BME280;13479;49.044;8.716;2022-07-10T06:26:37;99861.34;;;27.59;34.24
25610;BME280;13479;49.044;8.716;2022-07-10T06:29:02;99848.47;;;27.16;34.90
25610;BME280;13479;49.044;8.716;2022-07-10T06:31:28;99849.13;;;26.40;36.08
25610;BME280;13479;49.044;8.716;2022-07-10T06:33:54;99837.81;;;25.51;37.40
25610;BME280;13479;49.044;8.716;2022-07-10T06:36:19;99841.13;;;24.92;38.28
25610;BME280;13479;49.044;8.716;2022-07-10T06:38:44;99839.81;;;24.75;39.48
25610;BME280;13479;49.044;8.716;2022-07-10T06:41:10;99828.75;;;24.70;39.14
25610;BME280;13479;49.044;8.716;2022-07-10T06:43:35;99817.44;;;24.59;39.63
25610;BME280;13479;49.044;8.716;2022-07-10T06:46:00;99818.19;;;24.40;40.08
25610;BME280;13479;49.044;8.716;2022-07-10T06:48:27;99810.13;;;23.98;40.01
25610;BME280;13479;49.044;8.716;2022-07-10T06:50:53;99814.00;;;23.60;40.87
25610;BME280;13479;49.044;8.716;2022-07-10T06:53:18;99807.41;;;23.12;41.56
25610;BME280;13479;49.044;8.716;2022-07-10T06:55:51;99801.34;;;22.67;42.41
25610;BME280;13479;49.044;8.716;2022-07-10T06:58:17;99798.31;;;22.40;43.57
25610;BME280;13479;49.044;8.716;2022-07-10T07:00:42;99792.47;;;22.36;43.75
25610;BME280;13479;49.044;8.716;2022-07-10T07:03:07;99798.31;;;22.40;43.68
25610;BME280;13479;49.044;8.716;2022-07-10T07:05:32;99796.31;;;22.42;43.65
25610;BME280;13479;49.044;8.716;2022-07-10T07:07:58;99786.81;;;22.16;43.51
25610;BME280;13479;49.044;8.716;2022-07-10T07:10:23;99793.63;;;21.97;44.29
25610;BME280;13479;49.044;8.716;2022-07-10T07:12:48;99785.28;;;21.77;44.31
25610;BME280;13479;49.044;8.716;2022-07-10T07:15:13;99789.28;;;21.81;45.20
25610;BME280;13479;49.044;8.716;2022-07-10T07:17:41;99778.94;;;21.70;45.21
25610;BME280;13479;49.044;8.716;2022-07-10T07:20:24;99787.44;;;21.67;45.51
25610;BME280;13479;49.044;8.716;2022-07-10T07:23:09;99789.47;;;21.65;45.40
25610;BME280;13479;49.044;8.716;2022-07-10T07:25:38;99785.84;;;21.72;45.37
25610;BME280;13479;49.044;8.716;2022-07-10T07:28:05;99796.72;;;21.79;44.42
25610;BME280;13479;49.044;8.716;2022-07-10T07:30:31;99799.06;;;21.82;44.64
25610;BME280;13479;49.044;8.716;2022-07-10T07:32:56;99798.44;;;21.95;44.39
25610;BME280;13479;49.044;8.716;2022-07-10T07:35:21;99818.81;;;22.13;43.82
25610;BME280;13479;49.044;8.716;2022-07-10T07:37:49;99830.63;;;22.27;43.19
25610;BME280;13479;49.044;8.716;2022-07-10T07:40:24;99838.47;;;22.21;42.31
25610;BME280;13479;49.044;8.716;2022-07-10T07:42:50;99858.25;;;22.07;42.00
25610;BME280;13479;49.044;8.716;2022-07-10T07:45:16;99853.78;;;21.84;42.28
25610;BME280;13479;49.044;8.716;2022-07-10T07:47:55;99854.53;;;21.78;42.78
25610;BME280;13479;49.044;8.716;2022-07-10T07:50:26;99828.59;;;21.69;43.52
25610;BME280;13479;49.044;8.716;2022-07-10T07:52:53;99805.22;;;21.61;44.10
25610;BME280;13479;49.044;8.716;2022-07-10T07:55:20;99804.56;;;21.74;43.85
25610;BME280;13479;49.044;8.716;2022-07-10T07:57:46;99813.97;;;21.93;43.54
25610;BME280;13479;49.044;8.716;2022-07-10T08:00:13;99820.56;;;22.20;42.53
25610;BME280;13479;49.044;8.716;2022-07-10T08:02:39;99844.38;;;22.62;41.65
25610;BME280;13479;49.044;8.716;2022-07-10T08:05:05;99855.00;;;23.00;41.13
25610;BME280;13479;49.044;8.716;2022-07-10T08:07:42;99862.50;;;23.20;40.29
25610;BME280;13479;49.044;8.716;2022-07-10T08:10:09;99863.41;;;23.12;39.83
25610;BME280;13479;49.044;8.716;2022-07-10T08:12:35;99857.28;;;23.03;40.00
25610;BME280;13479;49.044;8.716;2022-07-10T08:15:01;99847.63;;;22.94;40.56
25610;BME280;13479;49.044;8.716;2022-07-10T08:17:26;99832.81;;;23.11;40.68
25610;BME280;13479;49.044;8.716;2022-07-10T08:19:52;99839.44;;;23.31;40.45
25610;BME280;13479;49.044;8.716;2022-07-10T08:22:18;99851.38;;;23.65;39.67
25610;BME280;13479;49.044;8.716;2022-07-10T08:24:43;99841.91;;;23.82;39.39
25610;BME280;13479;49.044;8.716;2022-07-10T08:27:09;99847.50;;;23.74;39.33
25610;BME280;13479;49.044;8.716;2022-07-10T08:29:34;99858.38;;;23.52;38.78
25610;BME280;13479;49.044;8.716;2022-07-10T08:32:00;99858.06;;;23.40;39.02
25610;BME280;13479;49.044;8.716;2022-07-10T08:34:26;99846.78;;;23.15;39.64
25610;BME280;13479;49.044;8.716;2022-07-10T08:36:52;99846.47;;;23.03;39.91
25610;BME280;13479;49.044;8.716;2022-07-10T08:39:17;99822.75;;;23.05;40.75
25610;BME280;13479;49.044;8.716;2022-07-10T08:41:46;99824.56;;;23.20;39.63
25610;BME280;13479;49.044;8.716;2022-07-10T08:44:15;99844.91;;;23.37;39.15
25610;BME280;13479;49.044;8.716;2022-07-10T08:46:40;99832.28;;;23.44;39.71
25610;BME280;13479;49.044;8.716;2022-07-10T08:49:08;99846.16;;;23.63;38.82
25610;BME280;13479;49.044;8.716;2022-07-10T08:54:04;99856.16;;;24.26;37.51
25610;BME280;13479;49.044;8.716;2022-07-10T08:56:31;99860.56;;;25.23;35.57
25610;BME280;13479;49.044;8.716;2022-07-10T08:58:57;99866.94;;;26.81;33.10
25610;BME280;13479;49.044;8.716;2022-07-10T09:01:23;99878.63;;;29.25;29.63
25610;BME280;13479;49.044;8.716;2022-07-10T09:03:49;99894.09;;;31.94;24.93
25610;BME280;13479;49.044;8.716;2022-07-10T09:06:16;99918.13;;;32.43;25.02
25610;BME280;13479;49.044;8.716;2022-07-10T09:08:57;99940.44;;;31.22;25.77
25610;BME280;13479;49.044;8.716;2022-07-10T09:11:23;99945.25;;;30.09;26.95
25610;BME280;13479;49.044;8.716;2022-07-10T09:13:55;99946.78;;;30.05;27.42
25610;BME280;13479;49.044;8.716;2022-07-10T09:16:31;99951.66;;;31.37;25.61
25610;BME280;13479;49.044;8.716;2022-07-10T09:19:20;99946.03;;;30.45;26.86
25610;BME280;13479;49.044;8.716;2022-07-10T09:21:47;99941.41;;;30.34;26.60
25610;BME280;13479;49.044;8.716;2022-07-10T09:24:14;99944.31;;;32.11;24.50
25610;BME280;13479;49.044;8.716;2022-07-10T09:26:40;99942.72;;;33.92;22.67
25610;BME280;13479;49.044;8.716;2022-07-10T09:29:07;99948.75;;;35.41;20.89
25610;BME280;13479;49.044;8.716;2022-07-10T09:31:52;99962.53;;;36.14;19.49
25610;BME280;13479;49.044;8.716;2022-07-10T09:34:18;99977.19;;;36.96;19.04
25610;BME280;13479;49.044;8.716;2022-07-10T09:36:59;99987.06;;;38.16;17.96
25610;BME280;13479;49.044;8.716;2022-07-10T09:39:24;99985.75;;;37.74;18.06
25610;BME280;13479;49.044;8.716;2022-07-10T09:41:49;99996.56;;;35.52;19.64
25610;BME280;13479;49.044;8.716;2022-07-10T09:44:15;100002.31;;;33.43;22.18
25610;BME280;13479;49.044;8.716;2022-07-10T09:46:40;99989.03;;;32.07;23.21
25610;BME280;13479;49.044;8.716;2022-07-10T09:49:09;99982.91;;;31.53;24.22
25610;BME280;13479;49.044;8.716;2022-07-10T09:54:06;99947.19;;;34.03;21.59
25610;BME280;13479;49.044;8.716;2022-07-10T09:56:38;99945.19;;;35.62;19.45
25610;BME280;13479;49.044;8.716;2022-07-10T09:59:08;99957.38;;;35.45;20.47
25610;BME280;13479;49.044;8.716;2022-07-10T10:01:36;99969.91;;;34.31;20.01
25610;BME280;13479;49.044;8.716;2022-07-10T10:04:03;99972.44;;;32.36;21.92
25610;BME280;13479;49.044;8.716;2022-07-10T10:06:30;99953.69;;;32.55;22.21
25610;BME280;13479;49.044;8.716;2022-07-10T10:08:58;99943.72;;;33.20;21.43
25610;BME280;13479;49.044;8.716;2022-07-10T10:11:26;99941.16;;;33.36;21.28
25610;BME280;13479;49.044;8.716;2022-07-10T10:13:52;99945.16;;;32.29;21.89
25610;BME280;13479;49.044;8.716;2022-07-10T10:16:19;99928.78;;;32.39;21.83
25610;BME280;13479;49.044;8.716;2022-07-10T10:18:44;99927.75;;;32.23;22.04
25610;BME280;13479;49.044;8.716;2022-07-10T10:21:29;99926.28;;;32.38;21.58
25610;BME280;13479;49.044;8.716;2022-07-10T10:23:55;99920.56;;;31.66;21.22
25610;BME280;13479;49.044;8.716;2022-07-10T10:26:22;99915.66;;;31.85;21.22
25610;BME280;13479;49.044;8.716;2022-07-10T10:28:50;99910.47;;;32.06;22.00
25610;BME280;13479;49.044;8.716;2022-07-10T10:31:16;99911.38;;;31.72;22.78
25610;BME280;13479;49.044;8.716;2022-07-10T10:33:42;99898.97;;;31.18;23.27
25610;BME280;13479;49.044;8.716;2022-07-10T10:36:12;99889.94;;;30.36;23.62
25610;BME280;13479;49.044;8.716;2022-07-10T10:41:26;99875.53;;;31.27;23.86
25610;BME280;13479;49.044;8.716;2022-07-10T10:46:32;99882.75;;;30.88;23.22
25610;BME280;13479;49.044;8.716;2022-07-10T10:49:04;99884.34;;;31.30;22.91
25610;BME280;13479;49.044;8.716;2022-07-10T10:54:21;99885.09;;;31.98;21.17
25610;BME280;13479;49.044;8.716;2022-07-10T10:57:16;99894.78;;;32.23;22.15
25610;BME280;13479;49.044;8.716;2022-07-10T11:02:28;99904.94;;;31.32;21.90
25610;BME280;13479;49.044;8.716;2022-07-10T11:07:57;99898.69;;;30.91;21.54
25610;BME280;13479;49.044;8.716;2022-07-10T11:10:30;99895.47;;;30.65;21.99
25610;BME280;13479;49.044;8.716;2022-07-10T11:13:01;99903.81;;;30.17;22.82
25610;BME280;13479;49.044;8.716;2022-07-10T11:15:28;99888.81;;;29.61;24.09
25610;BME280;13479;49.044;8.716;2022-07-10T11:17:58;99877.38;;;29.76;24.29
25610;BME280;13479;49.044;8.716;2022-07-10T11:20:23;99879.53;;;29.50;24.25
25610;BME280;13479;49.044;8.716;2022-07-10T11:28:34;99861.47;;;27.46;26.59
25610;BME280;13479;49.044;8.716;2022-07-10T11:31:03;99849.31;;;26.84;26.27
25610;BME280;13479;49.044;8.716;2022-07-10T11:33:39;99833.16;;;26.50;27.06
25610;BME280;13479;49.044;8.716;2022-07-10T11:36:10;99845.47;;;26.14;29.04
25610;BME280;13479;49.044;8.716;2022-07-10T11:38:38;99831.72;;;25.75;27.87
25610;BME280;13479;49.044;8.716;2022-07-10T11:41:04;99822.78;;;25.41;28.74
25610;BME280;13479;49.044;8.716;2022-07-10T11:43:29;99819.19;;;25.01;29.56
25610;BME280;13479;49.044;8.716;2022-07-10T11:45:54;99816.25;;;24.82;28.88
25610;BME280;13479;49.044;8.716;2022-07-10T11:48:24;99797.00;;;24.70;28.92
25610;BME280;13479;49.044;8.716;2022-07-10T11:50:50;99797.25;;;24.82;30.19
25610;BME280;13479;49.044;8.716;2022-07-10T11:53:23;99799.34;;;24.93;30.43
25610;BME280;13479;49.044;8.716;2022-07-10T11:55:49;99795.78;;;24.93;28.91
25610;BME280;13479;49.044;8.716;2022-07-10T11:58:16;99787.41;;;24.74;29.53
25610;BME280;13479;49.044;8.716;2022-07-10T12:00:42;99780.66;;;24.57;30.31
25610;BME280;13479;49.044;8.716;2022-07-10T12:03:19;99795.25;;;24.35;30.02
25610;BME280;13479;49.044;8.716;2022-07-10T12:05:45;99781.66;;;24.29;29.79
25610;BME280;13479;49.044;8.716;2022-07-10T12:08:11;99775.00;;;24.45;31.65
25610;BME280;13479;49.044;8.716;2022-07-10T12:10:37;99766.13;;;24.78;31.34
25610;BME280;13479;49.044;8.716;2022-07-10T12:13:11;99776.56;;;25.21;30.10
25610;BME280;13479;49.044;8.716;2022-07-10T12:15:38;99771.53;;;25.52;31.12
25610;BME280;13479;49.044;8.716;2022-07-10T12:18:09;99790.06;;;25.75;27.56
25610;BME280;13479;49.044;8.716;2022-07-10T12:20:39;99789.69;;;25.65;28.57
25610;BME280;13479;49.044;8.716;2022-07-10T12:23:07;99802.50;;;25.44;28.10
25610;BME280;13479;49.044;8.716;2022-07-10T12:25:33;99806.22;;;25.36;29.23
25610;BME280;13479;49.044;8.716;2022-07-10T12:27:59;99805.81;;;25.33;29.41
25610;BME280;13479;49.044;8.716;2022-07-10T12:30:36;99794.53;;;25.36;28.23
25610;BME280;13479;49.044;8.716;2022-07-10T12:33:09;99788.91;;;25.44;29.50
25610;BME280;13479;49.044;8.716;2022-07-10T12:35:54;99789.53;;;25.46;28.50
25610;BME280;13479;49.044;8.716;2022-07-10T12:38:23;99792.44;;;25.44;28.96
25610;BME280;13479;49.044;8.716;2022-07-10T12:40:49;99797.47;;;25.14;28.34
25610;BME280;13479;49.044;8.716;2022-07-10T12:43:27;99798.28;;;25.01;29.66
25610;BME280;13479;49.044;8.716;2022-07-10T12:46:16;99789.53;;;24.86;29.23
25610;BME280;13479;49.044;8.716;2022-07-10T12:48:43;99795.25;;;24.49;29.86
25610;BME280;13479;49.044;8.716;2022-07-10T12:51:30;99788.50;;;24.25;30.10
25610;BME280;13479;49.044;8.716;2022-07-10T12:53:55;99776.16;;;24.15;31.76
25610;BME280;13479;49.044;8.716;2022-07-10T12:58:59;99769.91;;;24.15;31.78
25610;BME280;13479;49.044;8.716;2022-07-10T13:01:26;99773.47;;;24.22;30.98
25610;BME280;13479;49.044;8.716;2022-07-10T13:04:00;99765.38;;;24.35;31.61
25610;BME280;13479;49.044;8.716;2022-07-10T13:06:29;99761.22;;;24.46;31.17
25610;BME280;13479;49.044;8.716;2022-07-10T13:08:55;99776.88;;;24.51;29.93
25610;BME280;13479;49.044;8.716;2022-07-10T13:11:21;99759.38;;;24.60;30.79
25610;BME280;13479;49.044;8.716;2022-07-10T13:13:47;99769.47;;;24.80;30.25
25610;BME280;13479;49.044;8.716;2022-07-10T13:16:12;99774.47;;;24.83;30.15
25610;BME280;13479;49.044;8.716;2022-07-10T13:18:37;99768.59;;;24.73;30.00
25610;BME280;13479;49.044;8.716;2022-07-10T13:21:02;99775.66;;;24.60;29.31
25610;BME280;13479;49.044;8.716;2022-07-10T13:23:29;99779.81;;;24.43;30.09
25610;BME280;13479;49.044;8.716;2022-07-10T13:25:56;99777.28;;;24.34;31.01
25610;BME280;13479;49.044;8.716;2022-07-10T13:28:22;99775.38;;;24.28;31.68
25610;BME280;13479;49.044;8.716;2022-07-10T13:30:47;99768.66;;;24.17;30.97
25610;BME280;13479;49.044;8.716;2022-07-10T13:33:13;99758.88;;;24.23;31.48
25610;BME280;13479;49.044;8.716;2022-07-10T13:35:38;99756.00;;;24.45;31.52
25610;BME280;13479;49.044;8.716;2022-07-10T13:38:04;99763.97;;;24.53;31.63
25610;BME280;13479;49.044;8.716;2022-07-10T13:40:31;99752.69;;;24.56;31.69
25610;BME280;13479;49.044;8.716;2022-07-10T13:42:57;99765.03;;;24.65;31.21
25610;BME280;13479;49.044;8.716;2022-07-10T13:45:23;99760.63;;;24.64;30.59
25610;BME280;13479;49.044;8.716;2022-07-10T13:47:51;99768.19;;;24.76;30.67
25610;BME280;13479;49.044;8.716;2022-07-10T13:50:18;99775.72;;;24.87;30.38
25610;BME280;13479;49.044;8.716;2022-07-10T13:52:44;99775.31;;;25.04;30.36
25610;BME280;13479;49.044;8.716;2022-07-10T13:55:09;99771.13;;;25.21;30.77
25610;BME280;13479;49.044;8.716;2022-07-10T13:57:35;99771.13;;;25.14;31.00
25610;BME280;13479;49.044;8.716;2022-07-10T14:00:00;99765.28;;;25.24;31.70
25610;BME280;13479;49.044;8.716;2022-07-10T14:02:25;99768.19;;;25.36;29.61
25610;BME280;13479;49.044;8.716;2022-07-10T14:04:51;99776.56;;;25.35;30.17
25610;BME280;13479;49.044;8.716;2022-07-10T14:07:16;99783.84;;;25.34;30.05
25610;BME280;13479;49.044;8.716;2022-07-10T14:09:42;99792.88;;;25.28;29.25
25610;BME280;13479;49.044;8.716;2022-07-10T14:12:07;99786.16;;;25.31;29.44
25610;BME280;13479;49.044;8.716;2022-07-10T14:14:33;99788.06;;;25.37;29.88
25610;BME280;13479;49.044;8.716;2022-07-10T14:16:58;99789.13;;;25.42;29.28
25610;BME280;13479;49.044;8.716;2022-07-10T14:19:23;99790.34;;;25.60;29.91
25610;BME280;13479;49.044;8.716;2022-07-10T14:21:49;99794.09;;;25.66;29.42
25610;BME280;13479;49.044;8.716;2022-07-10T14:24:14;99785.94;;;25.66;30.71
25610;BME280;13479;49.044;8.716;2022-07-10T14:26:39;99773.19;;;25.59;31.25
25610;BME280;13479;49.044;8.716;2022-07-10T14:29:05;99769.81;;;25.71;31.00
25610;BME280;13479;49.044;8.716;2022-07-10T14:31:30;99761.66;;;25.71;31.04
25610;BME280;13479;49.044;8.716;2022-07-10T14:33:56;99763.50;;;25.77;30.52
25610;BME280;13479;49.044;8.716;2022-07-10T14:36:21;99770.19;;;25.81;28.86
25610;BME280;13479;49.044;8.716;2022-07-10T14:38:55;99766.63;;;25.87;30.00
25610;BME280;13479;49.044;8.716;2022-07-10T14:41:21;99766.41;;;25.89;30.26
25610;BME280;13479;49.044;8.716;2022-07-10T14:43:46;99777.91;;;25.84;29.08
25610;BME280;13479;49.044;8.716;2022-07-10T14:46:12;99791.34;;;25.72;29.00
25610;BME280;13479;49.044;8.716;2022-07-10T14:48:37;99781.53;;;25.65;29.56
25610;BME280;13479;49.044;8.716;2022-07-10T14:51:02;99778.63;;;25.66;29.52
25610;BME280;13479;49.044;8.716;2022-07-10T14:53:28;99766.47;;;25.75;30.57
25610;BME280;13479;49.044;8.716;2022-07-10T14:55:54;99766.63;;;25.87;29.85
25610;BME280;13479;49.044;8.716;2022-07-10T14:58:19;99763.41;;;26.04;29.97
25610;BME280;13479;49.044;8.716;2022-07-10T15:00:45;99758.97;;;26.23;29.81
25610;BME280;13479;49.044;8.716;2022-07-10T15:03:10;99758.97;;;26.23;30.37
25610;BME280;13479;49.044;8.716;2022-07-10T15:05:35;99750.56;;;26.25;30.57
25610;BME280;13479;49.044;8.716;2022-07-10T15:08:01;99765.88;;;26.19;30.53
25610;BME280;13479;49.044;8.716;2022-07-10T15:10:28;99755.44;;;26.09;31.20
25610;BME280;13479;49.044;8.716;2022-07-10T15:12:54;99760.47;;;26.12;29.14
25610;BME280;13479;49.044;8.716;2022-07-10T15:15:19;99753.16;;;26.06;30.78
25610;BME280;13479;49.044;8.716;2022-07-10T15:17:44;99775.66;;;25.81;30.57
25610;BME280;13479;49.044;8.716;2022-07-10T15:20:10;99761.47;;;25.52;30.84
25610;BME280;13479;49.044;8.716;2022-07-10T15:22:36;99757.31;;;25.29;31.62
25610;BME280;13479;49.044;8.716;2022-07-10T15:25:01;99745.84;;;25.07;31.90
25610;BME280;13479;49.044;8.716;2022-07-10T15:27:27;99747.31;;;24.83;31.54
25610;BME280;13479;49.044;8.716;2022-07-10T15:29:52;99750.41;;;24.60;32.83
25610;BME280;13479;49.044;8.716;2022-07-10T15:32:18;99742.66;;;24.50;33.25
25610;BME280;13479;49.044;8.716;2022-07-10T15:34:43;99746.00;;;24.52;32.61
25610;BME280;13479;49.044;8.716;2022-07-10T15:37:09;99739.13;;;24.63;33.28
25610;BME280;13479;49.044;8.716;2022-07-10T15:39:34;99732.91;;;24.76;32.67
25610;BME280;13479;49.044;8.716;2022-07-10T15:42:07;99732.09;;;24.82;33.14
25610;BME280;13479;49.044;8.716;2022-07-10T15:44:32;99728.09;;;24.91;32.76
25610;BME280;13479;49.044;8.716;2022-07-10T15:46:58;99743.13;;;24.87;31.82
25610;BME280;13479;49.044;8.716;2022-07-10T15:49:23;99743.13;;;24.87;31.95
25610;BME280;13479;49.044;8.716;2022-07-10T15:51:48;99738.75;;;25.00;32.88
25610;BME280;13479;49.044;8.716;2022-07-10T15:54:15;99734.34;;;25.12;32.24
25610;BME280;13479;49.044;8.716;2022-07-10T15:56:40;99733.09;;;25.21;32.04
25610;BME280;13479;49.044;8.716;2022-07-10T15:59:05;99735.19;;;25.19;32.25
25610;BME280;13479;49.044;8.716;2022-07-10T16:01:31;99729.31;;;25.22;31.91
25610;BME280;13479;49.044;8.716;2022-07-10T16:03:56;99741.00;;;25.36;30.98
25610;BME280;13479;49.044;8.716;2022-07-10T16:06:21;99748.34;;;25.36;31.57
25610;BME280;13479;49.044;8.716;2022-07-10T16:08:47;99741.84;;;25.30;32.57
25610;BME280;13479;49.044;8.716;2022-07-10T16:11:12;99733.25;;;25.40;32.56
25610;BME280;13479;49.044;8.716;2022-07-10T16:13:38;99726.16;;;25.39;32.85
25610;BME280;13479;49.044;8.716;2022-07-10T16:16:03;99729.53;;;25.41;32.20
25610;BME280;13479;49.044;8.716;2022-07-10T16:18:28;99720.94;;;25.31;33.02
25610;BME280;13479;49.044;8.716;2022-07-10T16:20:54;99719.72;;;25.26;32.95
25610;BME280;13479;49.044;8.716;2022-07-10T16:23:19;99719.72;;;25.33;32.70
25610;BME280;13479;49.044;8.716;2022-07-10T16:25:45;99713.84;;;25.29;32.96
25610;BME280;13479;49.044;8.716;2022-07-10T16:30:55;99718.88;;;25.26;33.11
25610;BME280;13479;49.044;8.716;2022-07-10T16:33:20;99717.59;;;25.28;32.88
25610;BME280;13479;49.044;8.716;2022-07-10T16:35:46;99714.06;;;25.28;32.61
25610;BME280;13479;49.044;8.716;2022-07-10T16:38:11;99707.19;;;25.25;33.22
25610;BME280;13479;49.044;8.716;2022-07-10T16:40:40;99705.09;;;25.27;33.25
25610;BME280;13479;49.044;8.716;2022-07-10T16:43:06;99717.19;;;25.32;32.66
25610;BME280;13479;49.044;8.716;2022-07-10T16:45:31;99716.38;;;25.24;33.12
25610;BME280;13479;49.044;8.716;2022-07-10T16:47:56;99708.41;;;25.29;32.87
25610;BME280;13479;49.044;8.716;2022-07-10T16:50:22;99700.69;;;25.26;33.16
25610;BME280;13479;49.044;8.716;2022-07-10T16:52:47;99697.13;;;25.26;33.12
25610;BME280;13479;49.044;8.716;2022-07-10T16:55:13;99696.09;;;25.20;33.28
25610;BME280;13479;49.044;8.716;2022-07-10T16:57:39;99699.06;;;25.05;33.19
25610;BME280;13479;49.044;8.716;2022-07-10T17:00:06;99690.72;;;24.87;33.46
25610;BME280;13479;49.044;8.716;2022-07-10T17:02:31;99700.09;;;24.77;32.89
25610;BME280;13479;49.044;8.716;2022-07-10T17:04:57;99697.56;;;24.56;33.82
25610;BME280;13479;49.044;8.716;2022-07-10T17:07:22;99701.75;;;24.58;33.49
25610;BME280;13479;49.044;8.716;2022-07-10T17:09:47;99693.38;;;24.46;34.24
25610;BME280;13479;49.044;8.716;2022-07-10T17:12:12;99690.03;;;24.44;34.33
25610;BME280;13479;49.044;8.716;2022-07-10T17:14:40;99693.78;;;24.43;33.96
25610;BME280;13479;49.044;8.716;2022-07-10T17:17:06;99686.91;;;24.41;34.25
25610;BME280;13479;49.044;8.716;2022-07-10T17:19:31;99692.31;;;24.41;34.22
25610;BME280;13479;49.044;8.716;2022-07-10T17:21:57;99696.31;;;24.38;33.83
25610;BME280;13479;49.044;8.716;2022-07-10T17:24:22;99688.38;;;24.30;34.90
25610;BME280;13479;49.044;8.716;2022-07-10T17:26:48;99695.44;;;24.24;34.99
25610;BME280;13479;49.044;8.716;2022-07-10T17:29:13;99695.81;;;24.08;35.24
25610;BME280;13479;49.044;8.716;2022-07-10T17:31:39;99698.25;;;23.89;35.47
25610;BME280;13479;49.044;8.716;2022-07-10T17:34:04;99695.47;;;23.75;35.67
25610;BME280;13479;49.044;8.716;2022-07-10T17:36:30;99686.81;;;23.52;36.16
25610;BME280;13479;49.044;8.716;2022-07-10T17:38:55;99693.97;;;23.24;35.92
25610;BME280;13479;49.044;8.716;2022-07-10T17:41:21;99697.13;;;23.06;36.86
25610;BME280;13479;49.044;8.716;2022-07-10T17:43:46;99694.81;;;22.96;37.19
25610;BME280;13479;49.044;8.716;2022-07-10T17:46:11;99696.81;;;22.88;37.33